createdAt,value
2019-05-29T00:00:02.758Z,4.85
2019-05-29T00:02:56.862Z,4.07
2019-05-29T00:05:44.546Z,4.35
2019-05-29T00:08:31.893Z,5.32
2019-05-29T00:14:27.604Z,5.62
2019-05-29T00:17:14.669Z,4.87
2019-05-29T00:20:01.361Z,4.65
2019-05-29T00:22:48.299Z,4.62
2019-05-29T00:25:42.401Z,6.00
2019-05-29T00:28:29.947Z,3.95
2019-05-29T00:31:18.205Z,4.12
2019-05-29T00:34:04.496Z,3.92
2019-05-29T00:36:51.936Z,4.20
2019-05-29T00:42:51.524Z,3.00
2019-05-29T00:45:38.861Z,3.33
2019-05-29T00:48:26.803Z,3.05
2019-05-29T00:51:15.088Z,2.90
2019-05-29T00:54:01.549Z,3.10
2019-05-29T00:56:49.462Z,2.37
2019-05-29T00:59:36.735Z,2.42
2019-05-29T01:02:24.927Z,2.10
2019-05-29T01:05:12.297Z,2.40
2019-05-29T01:07:59.366Z,2.33
2019-05-29T01:11:01.375Z,2.22
2019-05-29T01:13:48.796Z,2.55
2019-05-29T01:16:36.194Z,2.00
2019-05-29T01:19:33.321Z,1.70
2019-05-29T01:22:20.327Z,1.87
2019-05-29T01:25:07.973Z,1.83
2019-05-29T01:27:55.235Z,1.80
2019-05-29T01:30:43.221Z,1.90
2019-05-29T01:33:30.852Z,1.80
2019-05-29T01:36:25.087Z,1.98
2019-05-29T01:39:11.849Z,2.40
2019-05-29T01:41:59.392Z,2.47
2019-05-29T01:44:47.206Z,2.42
2019-05-29T01:47:34.936Z,2.35
2019-05-29T01:50:25.280Z,2.25
2019-05-29T01:53:19.582Z,2.40
2019-05-29T01:56:06.752Z,2.42
2019-05-29T01:58:53.869Z,2.17
2019-05-29T02:01:40.913Z,2.35
2019-05-29T02:04:28.229Z,2.10
2019-05-29T02:07:15.844Z,2.28
2019-05-29T02:10:02.978Z,2.45
2019-05-29T02:12:49.793Z,2.37
2019-05-29T02:15:37.366Z,2.75
2019-05-29T02:18:25.094Z,2.30
2019-05-29T02:24:18.984Z,2.25
2019-05-29T02:30:11.247Z,2.27
2019-05-29T02:32:58.264Z,2.12
2019-05-29T02:38:53.081Z,2.50
2019-05-29T02:41:40.874Z,2.00
2019-05-29T02:44:28.218Z,2.60
2019-05-29T02:47:15.411Z,2.20
2019-05-29T02:50:04.066Z,2.13
2019-05-29T02:52:52.205Z,2.33
2019-05-29T02:55:40.961Z,2.40
2019-05-29T03:01:33.652Z,2.63
2019-05-29T03:04:21.710Z,2.37
2019-05-29T03:07:08.266Z,3.50
2019-05-29T03:09:56.200Z,2.85
2019-05-29T03:12:43.252Z,2.53
2019-05-29T03:15:31.623Z,2.67
2019-05-29T03:18:18.193Z,3.08
2019-05-29T03:21:06.323Z,2.67
2019-05-29T03:23:53.766Z,2.20
2019-05-29T03:26:41.676Z,2.47
2019-05-29T03:29:29.996Z,2.67
2019-05-29T03:32:16.748Z,2.12
2019-05-29T03:35:03.952Z,1.90
2019-05-29T03:37:50.807Z,2.50
2019-05-29T03:40:38.784Z,1.90
2019-05-29T03:43:26.160Z,2.50
2019-05-29T03:46:29.280Z,1.70
2019-05-29T03:48:58.607Z,1.85
2019-05-29T03:51:45.674Z,1.90
2019-05-29T03:54:33.825Z,2.50
2019-05-29T03:57:20.089Z,2.00
2019-05-29T04:00:06.946Z,1.87
2019-05-29T04:02:54.803Z,2.20
2019-05-29T04:05:41.866Z,2.00
2019-05-29T04:08:29.501Z,1.50
2019-05-29T04:11:16.686Z,1.87
2019-05-29T04:14:03.629Z,1.75
2019-05-29T04:16:59.400Z,1.60
2019-05-29T04:19:38.800Z,1.62
2019-05-29T04:22:30.421Z,2.10
2019-05-29T04:25:16.243Z,2.10
2019-05-29T04:28:03.684Z,2.03
2019-05-29T04:30:50.963Z,2.03
2019-05-29T04:33:38.991Z,1.85
2019-05-29T04:36:26.043Z,1.75
2019-05-29T04:39:13.366Z,1.90
2019-05-29T04:42:14.708Z,2.33
2019-05-29T04:45:02.044Z,1.83
2019-05-29T04:47:49.083Z,1.87
2019-05-29T04:50:38.244Z,1.62
2019-05-29T04:53:23.495Z,1.52
2019-05-29T04:59:18.083Z,1.17
2019-05-29T05:02:04.968Z,1.10
2019-05-29T05:05:06.543Z,1.50
2019-05-29T05:08:07.604Z,1.70
2019-05-29T05:10:55.222Z,1.50
2019-05-29T05:13:49.301Z,1.05
2019-05-29T05:19:42.364Z,1.33
2019-05-29T05:22:30.092Z,1.30
2019-05-29T05:25:16.907Z,1.40
2019-05-29T05:28:05.541Z,1.20
2019-05-29T05:30:53.272Z,1.25
2019-05-29T05:33:44.080Z,1.23
2019-05-29T05:36:30.825Z,1.20
2019-05-29T05:39:25.403Z,0.90
2019-05-29T05:42:11.969Z,1.45
2019-05-29T05:44:59.185Z,1.37
2019-05-29T05:48:00.760Z,1.48
2019-05-29T05:50:47.671Z,1.02
2019-05-29T05:53:48.586Z,1.10
2019-05-29T05:56:35.693Z,1.20
2019-05-29T05:59:37.715Z,0.98
2019-05-29T06:02:24.697Z,1.10
2019-05-29T06:05:11.927Z,0.82
2019-05-29T06:07:59.153Z,1.23
2019-05-29T06:10:46.668Z,0.90
2019-05-29T06:13:34.891Z,1.20
2019-05-29T06:16:22.070Z,0.93
2019-05-29T06:19:09.067Z,1.42
2019-05-29T06:21:57.067Z,0.90
2019-05-29T06:24:59.375Z,1.20
2019-05-29T06:28:01.214Z,1.50
2019-05-29T06:30:55.508Z,1.00
2019-05-29T06:33:44.092Z,1.00
2019-05-29T06:36:30.942Z,1.23
2019-05-29T06:39:19.163Z,0.80
2019-05-29T06:42:06.306Z,1.00
2019-05-29T06:45:01.183Z,1.08
2019-05-29T06:47:48.068Z,0.80
2019-05-29T06:50:37.247Z,0.90
2019-05-29T06:53:22.750Z,1.00
2019-05-29T06:56:17.587Z,1.20
2019-05-29T06:59:04.051Z,1.42
2019-05-29T07:01:51.758Z,0.98
2019-05-29T07:04:40.425Z,1.37
2019-05-29T07:07:27.840Z,1.25
2019-05-29T07:10:15.075Z,1.40
2019-05-29T07:13:02.500Z,1.30
2019-05-29T07:15:49.640Z,1.20
2019-05-29T07:18:36.800Z,0.80
2019-05-29T07:21:26.828Z,0.73
2019-05-29T07:24:13.754Z,1.10
2019-05-29T07:27:01.164Z,0.80
2019-05-29T07:29:48.165Z,1.12
2019-05-29T07:32:35.470Z,0.90
2019-05-29T07:35:26.271Z,1.12
2019-05-29T07:38:13.207Z,1.02
2019-05-29T07:41:00.421Z,1.10
2019-05-29T07:43:48.110Z,1.00
2019-05-29T07:46:34.452Z,1.00
2019-05-29T07:49:35.938Z,0.90
2019-05-29T07:52:11.748Z,1.02
2019-05-29T07:54:58.813Z,1.12
2019-05-29T07:57:47.023Z,0.85
2019-05-29T08:00:35.724Z,0.80
2019-05-29T08:03:21.035Z,0.70
2019-05-29T08:06:07.975Z,0.85
2019-05-29T08:08:55.393Z,0.88
2019-05-29T08:11:43.456Z,0.80
2019-05-29T08:14:32.883Z,0.77
2019-05-29T08:17:20.000Z,0.98
2019-05-29T08:20:08.029Z,1.05
2019-05-29T08:23:01.299Z,1.08
2019-05-29T08:26:02.738Z,0.70
2019-05-29T08:28:51.254Z,0.80
2019-05-29T08:31:37.522Z,0.88
2019-05-29T08:34:25.542Z,0.70
2019-05-29T08:37:12.437Z,0.90
2019-05-29T08:43:06.349Z,0.93
2019-05-29T08:45:53.646Z,0.70
2019-05-29T08:48:41.832Z,0.65
2019-05-29T08:51:28.693Z,0.68
2019-05-29T08:54:24.080Z,0.73
2019-05-29T08:57:10.185Z,0.68
2019-05-29T08:59:57.638Z,0.70
2019-05-29T09:02:44.693Z,0.80
2019-05-29T09:05:31.647Z,0.62
2019-05-29T09:08:25.779Z,0.50
2019-05-29T09:11:12.657Z,0.60
2019-05-29T09:13:59.701Z,0.60
2019-05-29T09:16:47.894Z,1.48
2019-05-29T09:19:34.924Z,0.70
2019-05-29T09:22:22.986Z,0.50
2019-05-29T09:25:23.907Z,0.40
2019-05-29T09:28:14.141Z,0.60
2019-05-29T09:31:15.553Z,0.70
2019-05-29T09:34:02.835Z,0.62
2019-05-29T09:36:50.267Z,0.65
2019-05-29T09:39:37.275Z,0.60
2019-05-29T09:42:25.441Z,0.60
2019-05-29T09:45:13.348Z,0.80
2019-05-29T09:48:01.243Z,0.65
2019-05-29T09:50:50.525Z,2.50
2019-05-29T09:53:35.459Z,0.55
2019-05-29T09:56:22.866Z,0.70
2019-05-29T09:59:09.482Z,0.50
2019-05-29T10:05:17.068Z,0.50
2019-05-29T10:08:05.594Z,0.30
2019-05-29T10:11:03.946Z,0.40
2019-05-29T10:13:39.456Z,0.60
2019-05-29T10:16:27.150Z,0.40
2019-05-29T10:19:13.995Z,0.50
2019-05-29T10:22:02.561Z,0.57
2019-05-29T10:24:48.824Z,0.55
2019-05-29T10:27:35.635Z,0.57
2019-05-29T10:30:22.448Z,0.32
2019-05-29T10:33:09.489Z,0.37
2019-05-29T10:35:56.616Z,0.50
2019-05-29T10:38:44.370Z,0.30
2019-05-29T10:41:31.713Z,0.40
2019-05-29T10:44:18.910Z,0.40
2019-05-29T10:47:07.182Z,0.50
2019-05-29T10:49:54.934Z,0.60
2019-05-29T10:52:41.720Z,0.60
2019-05-29T10:55:29.447Z,0.50
2019-05-29T10:58:18.513Z,0.30
2019-05-29T11:01:05.396Z,0.60
2019-05-29T11:03:53.921Z,0.47
2019-05-29T11:06:41.294Z,0.60
2019-05-29T11:09:42.937Z,0.37
2019-05-29T11:12:14.644Z,0.47
2019-05-29T11:15:19.926Z,0.50
2019-05-29T11:17:51.416Z,0.55
2019-05-29T11:20:37.564Z,0.40
2019-05-29T11:23:24.306Z,0.60
2019-05-29T11:26:10.940Z,0.40
2019-05-29T11:28:58.874Z,0.37
2019-05-29T11:31:48.460Z,0.40
2019-05-29T11:34:34.125Z,0.30
2019-05-29T11:37:22.044Z,0.50
2019-05-29T11:40:08.884Z,0.43
2019-05-29T11:42:57.028Z,0.30
2019-05-29T11:45:43.698Z,0.40
2019-05-29T11:48:30.514Z,0.40
2019-05-29T11:51:17.663Z,0.20
2019-05-29T11:54:05.165Z,0.30
2019-05-29T11:56:53.761Z,0.50
2019-05-29T11:59:39.825Z,0.50
2019-05-29T12:02:27.236Z,0.52
2019-05-29T12:05:14.072Z,0.60
2019-05-29T12:08:01.911Z,0.30
2019-05-29T12:10:48.275Z,0.60
2019-05-29T12:13:36.213Z,0.40
2019-05-29T12:16:23.269Z,0.62
2019-05-29T12:19:10.342Z,0.40
2019-05-29T12:25:03.451Z,0.45
2019-05-29T12:30:57.416Z,0.50
2019-05-29T12:33:44.494Z,0.30
2019-05-29T12:36:31.676Z,0.50
2019-05-29T12:39:19.074Z,0.80
2019-05-29T12:42:06.513Z,0.40
2019-05-29T12:44:53.539Z,0.35
2019-05-29T12:47:56.101Z,0.60
2019-05-29T12:50:41.766Z,0.50
2019-05-29T12:53:31.125Z,0.52
2019-05-29T12:56:15.728Z,0.50
2019-05-29T12:59:04.520Z,0.30
2019-05-29T13:01:50.163Z,0.30
2019-05-29T13:05:05.450Z,0.30
2019-05-29T13:07:23.923Z,0.30
2019-05-29T13:10:11.242Z,0.40
2019-05-29T13:13:04.277Z,0.60
2019-05-29T13:15:46.014Z,0.60
2019-05-29T13:18:32.862Z,0.43
2019-05-29T13:21:20.665Z,0.40
2019-05-29T13:24:11.240Z,0.40
2019-05-29T13:26:55.529Z,0.57
2019-05-29T13:29:46.129Z,0.45
2019-05-29T13:32:34.165Z,0.82
2019-05-29T13:35:22.231Z,0.60
2019-05-29T13:38:07.789Z,3.03
2019-05-29T13:40:56.131Z,0.40
2019-05-29T13:43:42.552Z,2.30
2019-05-29T13:46:29.861Z,0.60
2019-05-29T13:49:17.874Z,0.68
2019-05-29T13:52:09.844Z,0.60
2019-05-29T13:54:51.818Z,0.37
2019-05-29T13:57:40.042Z,0.50
2019-05-29T14:00:33.061Z,0.80
2019-05-29T14:03:14.303Z,0.60
2019-05-29T14:06:03.145Z,0.40
2019-05-29T14:08:49.433Z,0.52
2019-05-29T14:11:37.196Z,0.30
2019-05-29T14:14:24.797Z,0.40
2019-05-29T14:17:12.860Z,0.50
2019-05-29T14:20:00.537Z,0.40
2019-05-29T14:22:47.252Z,0.50
2019-05-29T14:25:34.594Z,0.50
2019-05-29T14:28:21.606Z,0.57
2019-05-29T14:31:10.041Z,0.55
2019-05-29T14:33:57.269Z,0.40
2019-05-29T14:36:44.321Z,0.40
2019-05-29T14:39:31.706Z,0.40
2019-05-29T14:42:18.931Z,0.40
2019-05-29T14:45:23.446Z,0.52
2019-05-29T14:48:12.811Z,0.73
2019-05-29T14:51:05.022Z,0.90
2019-05-29T14:53:52.483Z,0.73
2019-05-29T14:56:39.713Z,0.90
2019-05-29T14:59:27.135Z,0.65
2019-05-29T15:02:21.610Z,0.80
2019-05-29T15:05:01.279Z,0.37
2019-05-29T15:07:48.411Z,0.43
2019-05-29T15:10:35.545Z,0.30
2019-05-29T15:13:22.449Z,0.50
2019-05-29T15:16:10.894Z,0.50
2019-05-29T15:19:05.185Z,0.43
2019-05-29T15:21:59.878Z,0.40
2019-05-29T15:25:01.552Z,0.50
2019-05-29T15:27:35.265Z,0.50
2019-05-29T15:30:23.622Z,0.40
2019-05-29T15:33:10.896Z,0.73
2019-05-29T15:35:57.254Z,0.60
2019-05-29T15:38:44.449Z,0.73
2019-05-29T15:41:31.998Z,0.73
2019-05-29T15:44:19.149Z,0.70
2019-05-29T15:47:06.848Z,0.52
2019-05-29T15:50:08.988Z,0.40
2019-05-29T15:52:54.607Z,0.40
2019-05-29T15:55:41.832Z,0.43
2019-05-29T16:01:34.992Z,0.60
2019-05-29T16:04:23.014Z,0.50
2019-05-29T16:07:09.923Z,0.57
2019-05-29T16:09:56.735Z,0.68
2019-05-29T16:12:43.911Z,0.45
2019-05-29T16:15:30.745Z,0.37
2019-05-29T16:18:26.339Z,0.32
2019-05-29T16:21:04.812Z,0.40
2019-05-29T16:23:51.934Z,0.43
2019-05-29T16:26:39.048Z,0.37
2019-05-29T16:29:25.978Z,0.40
2019-05-29T16:32:27.176Z,0.60
2019-05-29T16:35:15.040Z,0.50
2019-05-29T16:38:02.329Z,0.50
2019-05-29T16:40:49.671Z,0.40
2019-05-29T16:43:36.487Z,0.65
2019-05-29T16:46:27.974Z,0.43
2019-05-29T16:49:29.153Z,0.43
2019-05-29T16:52:30.354Z,0.50
2019-05-29T16:58:24.955Z,0.60
2019-05-29T17:01:13.340Z,0.60
2019-05-29T17:04:00.362Z,0.70
2019-05-29T17:06:47.811Z,0.52
2019-05-29T17:09:34.767Z,0.50
2019-05-29T17:12:22.528Z,0.60
2019-05-29T17:15:17.050Z,0.50
2019-05-29T17:18:02.836Z,0.70
2019-05-29T17:20:50.107Z,0.70
2019-05-29T17:23:38.030Z,0.60
2019-05-29T17:26:25.867Z,0.60
2019-05-29T17:32:19.326Z,0.55
2019-05-29T17:35:11.024Z,0.40
2019-05-29T17:37:57.896Z,0.60
2019-05-29T17:40:45.227Z,0.60
2019-05-29T17:43:31.932Z,0.30
2019-05-29T17:46:19.526Z,0.60
2019-05-29T17:49:05.527Z,0.65
2019-05-29T17:51:52.222Z,0.45
2019-05-29T17:54:39.474Z,0.50
2019-05-29T17:57:40.781Z,0.60
2019-05-29T18:00:28.505Z,0.62
2019-05-29T18:03:16.085Z,0.62
2019-05-29T18:06:03.173Z,0.55
2019-05-29T18:08:51.119Z,0.70
2019-05-29T18:11:38.825Z,0.40
2019-05-29T18:14:25.747Z,0.60
2019-05-29T18:17:12.921Z,0.50
2019-05-29T18:20:00.184Z,0.40
2019-05-29T18:22:46.998Z,0.60
2019-05-29T18:25:34.010Z,0.75
2019-05-29T18:28:22.231Z,0.85
2019-05-29T18:31:10.579Z,0.60
2019-05-29T18:33:58.415Z,0.40
2019-05-29T18:36:48.311Z,0.40
2019-05-29T18:39:35.026Z,0.62
2019-05-29T18:42:22.521Z,0.50
2019-05-29T18:45:20.247Z,0.43
2019-05-29T18:47:56.799Z,0.40
2019-05-29T18:50:44.438Z,0.65
2019-05-29T18:53:33.009Z,0.70
2019-05-29T18:56:18.368Z,0.47
2019-05-29T18:59:06.566Z,0.60
2019-05-29T19:01:54.039Z,0.52
2019-05-29T19:04:41.322Z,0.37
2019-05-29T19:07:29.677Z,0.60
2019-05-29T19:10:15.385Z,0.62
2019-05-29T19:13:03.486Z,0.60
2019-05-29T19:16:05.032Z,0.60
2019-05-29T19:18:51.876Z,0.60
2019-05-29T19:21:39.206Z,0.43
2019-05-29T19:24:26.551Z,0.43
2019-05-29T19:27:27.985Z,0.60
2019-05-29T19:30:00.843Z,0.60
2019-05-29T19:36:08.438Z,0.60
2019-05-29T19:38:55.999Z,0.50
2019-05-29T19:41:44.085Z,0.73
2019-05-29T19:44:32.436Z,0.60
2019-05-29T19:47:32.846Z,0.60
2019-05-29T19:50:19.662Z,0.50
2019-05-29T19:53:07.498Z,1.20
2019-05-29T19:55:54.836Z,0.73
2019-05-29T19:58:42.078Z,0.70
2019-05-29T20:01:43.795Z,0.60
2019-05-29T20:04:30.638Z,0.70
2019-05-29T20:07:18.882Z,0.82
2019-05-29T20:10:06.071Z,0.90
2019-05-29T20:13:07.516Z,0.73
2019-05-29T20:15:54.711Z,1.00
2019-05-29T20:18:41.450Z,1.20
2019-05-29T20:21:28.614Z,0.98
2019-05-29T20:24:15.611Z,0.90
2019-05-29T20:27:02.859Z,0.77
2019-05-29T20:29:49.713Z,0.95
2019-05-29T20:32:37.193Z,1.55
2019-05-29T20:35:24.164Z,1.10
2019-05-29T20:38:11.192Z,0.93
2019-05-29T20:40:58.236Z,0.80
2019-05-29T20:43:45.232Z,0.82
2019-05-29T20:46:47.185Z,0.90
2019-05-29T20:52:41.474Z,1.02
2019-05-29T20:55:28.355Z,0.60
2019-05-29T21:01:23.980Z,1.00
2019-05-29T21:07:17.835Z,0.75
2019-05-29T21:10:05.053Z,0.75
2019-05-29T21:15:58.801Z,0.97
2019-05-29T21:18:47.636Z,0.70
2019-05-29T21:21:42.787Z,0.90
2019-05-29T21:24:30.545Z,0.97
2019-05-29T21:27:20.843Z,0.90
2019-05-29T21:30:07.670Z,1.57
2019-05-29T21:32:54.919Z,0.87
2019-05-29T21:35:44.743Z,1.00
2019-05-29T21:38:31.551Z,1.30
2019-05-29T21:41:20.466Z,1.20
2019-05-29T21:44:07.358Z,1.03
2019-05-29T21:46:54.365Z,0.90
2019-05-29T21:49:43.270Z,0.87
2019-05-29T21:52:30.185Z,1.25
2019-05-29T21:55:32.296Z,1.30
2019-05-29T21:58:19.926Z,1.35
2019-05-29T22:04:13.196Z,1.30
2019-05-29T22:07:01.619Z,1.33
2019-05-29T22:09:48.410Z,1.73
2019-05-29T22:15:42.442Z,1.43
2019-05-29T22:18:44.295Z,1.50
2019-05-29T22:21:38.488Z,1.63
2019-05-29T22:24:26.348Z,1.53
2019-05-29T22:27:14.715Z,1.43
2019-05-29T22:36:21.423Z,1.30
2019-05-29T22:45:24.147Z,1.23
2019-05-29T22:48:13.932Z,1.43
2019-05-29T22:51:02.082Z,1.60
2019-05-29T22:53:52.348Z,1.40
2019-05-29T22:56:39.164Z,1.40
2019-05-29T22:59:31.997Z,1.70
2019-05-29T23:08:42.493Z,2.03
2019-05-29T23:11:30.332Z,2.60
2019-05-29T23:14:17.150Z,2.00
2019-05-29T23:17:04.514Z,2.60
2019-05-29T23:19:52.430Z,2.93
2019-05-29T23:22:38.651Z,2.40
2019-05-29T23:25:40.150Z,1.80
2019-05-29T23:28:29.416Z,2.33
2019-05-29T23:31:17.862Z,1.43
2019-05-29T23:34:05.667Z,2.00
2019-05-29T23:40:01.248Z,2.03
2019-05-29T23:42:47.122Z,1.97
2019-05-29T23:45:33.911Z,2.03
2019-05-29T23:54:40.573Z,2.10
